createdAt,value
2022-10-18T00:00:18.081Z,96519.78
2022-10-18T00:02:44.676Z,96514.41
2022-10-18T00:05:11.381Z,96516.91
2022-10-18T00:07:37.951Z,96509.38
2022-10-18T00:10:05.279Z,96502.75
2022-10-18T00:12:36.338Z,96509.03
2022-10-18T00:15:04.364Z,96504.13
2022-10-18T00:17:31.390Z,96509.94
2022-10-18T00:19:58.136Z,96501.56
2022-10-18T00:22:25.529Z,96497.47
2022-10-18T00:24:52.220Z,96498.59
2022-10-18T00:27:19.157Z,96495.63
2022-10-18T00:29:45.756Z,96489.41
2022-10-18T00:32:12.462Z,96487.84
2022-10-18T00:34:39.973Z,96480.50
2022-10-18T00:37:06.869Z,96392.44
2022-10-18T00:39:33.564Z,96470.78
2022-10-18T00:42:00.119Z,96476.38
2022-10-18T00:44:26.663Z,96480.03
2022-10-18T00:46:55.678Z,96476.81
2022-10-18T00:49:27.430Z,96481.69
2022-10-18T00:51:59.344Z,96481.13
2022-10-18T00:54:26.720Z,96474.13
2022-10-18T00:56:53.364Z,96468.03
2022-10-18T00:59:20.320Z,96464.78
2022-10-18T01:01:46.972Z,96464.38
2022-10-18T01:04:15.490Z,96459.13
2022-10-18T01:06:50.267Z,96459.50
2022-10-18T01:09:17.981Z,96451.53
2022-10-18T01:11:47.361Z,96448.72
2022-10-18T01:14:32.542Z,96456.53
2022-10-18T01:17:09.127Z,96456.16
2022-10-18T01:19:50.532Z,96460.56
2022-10-18T01:22:34.921Z,96449.22
2022-10-18T01:25:20.478Z,96445.19
2022-10-18T01:27:55.957Z,96443.44
2022-10-18T01:30:28.497Z,96441.09
2022-10-18T01:32:58.567Z,96364.66
2022-10-18T01:35:29.404Z,96439.22
2022-10-18T01:37:59.401Z,96444.09
2022-10-18T01:40:26.261Z,96443.97
2022-10-18T01:42:55.327Z,96441.13
2022-10-18T01:45:23.368Z,96440.31
2022-10-18T01:47:50.122Z,96441.94
2022-10-18T01:50:28.173Z,96439.09
2022-10-18T01:52:54.852Z,96442.50
2022-10-18T01:55:25.072Z,96440.59
2022-10-18T01:58:10.365Z,96431.69
2022-10-18T02:00:41.185Z,96436.91
2022-10-18T02:03:15.175Z,96436.00
2022-10-18T02:06:05.586Z,96429.75
2022-10-18T02:08:38.422Z,96441.34
2022-10-18T02:11:05.026Z,96435.97
2022-10-18T02:13:36.161Z,96437.16
2022-10-18T02:16:06.374Z,96441.09
2022-10-18T02:18:41.902Z,96432.97
2022-10-18T02:21:11.240Z,96435.16
2022-10-18T02:23:38.500Z,96432.47
2022-10-18T02:26:05.566Z,96432.72
2022-10-18T02:28:32.186Z,96429.72
2022-10-18T02:31:17.202Z,96429.22
2022-10-18T02:33:52.827Z,96430.53
2022-10-18T02:36:33.452Z,96424.72
2022-10-18T02:39:04.662Z,96430.69
2022-10-18T02:41:31.676Z,96428.31
2022-10-18T02:43:58.260Z,96427.78
2022-10-18T02:46:24.937Z,96424.41
2022-10-18T02:48:51.576Z,96420.44
2022-10-18T02:51:18.185Z,96418.00
2022-10-18T02:53:44.790Z,96430.25
2022-10-18T02:56:11.398Z,96423.97
2022-10-18T02:58:38.001Z,96424.53
2022-10-18T03:01:04.556Z,96426.47
2022-10-18T03:03:31.148Z,96426.97
2022-10-18T03:05:57.746Z,96431.72
2022-10-18T03:08:24.361Z,96426.13
2022-10-18T03:10:50.990Z,96431.31
2022-10-18T03:13:18.296Z,96425.94
2022-10-18T03:15:45.025Z,96430.53
2022-10-18T03:18:11.570Z,96422.44
2022-10-18T03:20:38.147Z,96429.72
2022-10-18T03:23:05.177Z,96430.78
2022-10-18T03:25:31.978Z,96435.66
2022-10-18T03:27:58.613Z,96423.25
2022-10-18T03:30:25.533Z,96423.75
2022-10-18T03:32:52.177Z,96425.13
2022-10-18T03:35:19.058Z,96421.91
2022-10-18T03:37:45.827Z,96419.94
2022-10-18T03:40:12.429Z,96428.84
2022-10-18T03:42:39.001Z,96433.19
2022-10-18T03:45:06.010Z,96434.66
2022-10-18T03:47:32.656Z,96432.59
2022-10-18T03:49:59.190Z,96441.28
2022-10-18T03:52:25.766Z,96442.66
2022-10-18T03:54:52.443Z,96435.28
2022-10-18T03:57:19.072Z,96448.63
2022-10-18T03:59:45.621Z,96445.28
2022-10-18T04:02:12.260Z,96446.06
2022-10-18T04:04:38.877Z,96439.63
2022-10-18T04:07:05.682Z,96443.50
2022-10-18T04:09:32.278Z,96444.06
2022-10-18T04:11:58.899Z,96442.19
2022-10-18T04:14:26.599Z,96441.38
2022-10-18T04:16:54.364Z,96437.84
2022-10-18T04:19:20.995Z,96444.00
2022-10-18T04:21:49.186Z,96441.59
2022-10-18T04:24:18.930Z,96441.84
2022-10-18T04:26:45.757Z,96434.47
2022-10-18T04:29:12.503Z,96435.38
2022-10-18T04:31:40.965Z,96435.59
2022-10-18T04:34:07.616Z,96435.69
2022-10-18T04:36:34.245Z,96433.31
2022-10-18T04:39:00.827Z,96422.22
2022-10-18T04:41:27.431Z,96427.09
2022-10-18T04:43:54.448Z,96424.19
2022-10-18T04:46:21.077Z,96414.22
2022-10-18T04:48:47.688Z,96425.84
2022-10-18T04:51:14.490Z,96422.59
2022-10-18T04:53:41.044Z,96434.97
2022-10-18T04:56:07.898Z,96426.34
2022-10-18T04:58:34.616Z,96429.06
2022-10-18T05:01:04.384Z,96425.34
2022-10-18T05:03:32.563Z,96420.31
2022-10-18T05:06:03.069Z,96418.84
2022-10-18T05:08:32.628Z,96413.97
2022-10-18T05:10:59.728Z,96422.03
2022-10-18T05:13:26.502Z,96422.59
2022-10-18T05:15:53.129Z,96416.09
2022-10-18T05:18:20.120Z,96418.06
2022-10-18T05:20:46.804Z,96420.78
2022-10-18T05:23:13.447Z,96416.47
2022-10-18T05:25:40.894Z,96416.59
2022-10-18T05:28:15.621Z,96410.03
2022-10-18T05:30:54.089Z,96416.25
2022-10-18T05:33:20.810Z,96414.91
2022-10-18T05:35:47.721Z,96412.50
2022-10-18T05:38:14.313Z,96410.59
2022-10-18T05:40:40.933Z,96413.44
2022-10-18T05:43:07.549Z,96418.13
2022-10-18T05:45:34.165Z,96420.53
2022-10-18T05:48:00.785Z,96415.91
2022-10-18T05:50:27.486Z,96420.69
2022-10-18T05:53:02.688Z,96423.00
2022-10-18T05:55:38.931Z,96427.44
2022-10-18T05:58:05.520Z,96420.53
2022-10-18T06:00:32.368Z,96424.50
2022-10-18T06:03:00.365Z,96434.44
2022-10-18T06:05:27.920Z,96430.66
2022-10-18T06:07:54.798Z,96427.91
2022-10-18T06:10:21.450Z,96431.91
2022-10-18T06:13:01.173Z,96446.81
2022-10-18T06:15:27.815Z,96441.75
2022-10-18T06:17:55.431Z,96434.91
2022-10-18T06:20:22.019Z,96433.53
2022-10-18T06:22:51.658Z,96445.13
2022-10-18T06:25:18.234Z,96436.81
2022-10-18T06:27:44.815Z,96443.84
2022-10-18T06:30:11.527Z,96443.38
2022-10-18T06:32:38.137Z,96439.28
2022-10-18T06:35:04.911Z,96436.69
2022-10-18T06:37:31.849Z,96438.50
2022-10-18T06:39:58.628Z,96434.34
2022-10-18T06:42:25.309Z,96431.00
2022-10-18T06:44:51.926Z,96378.75
2022-10-18T06:47:18.534Z,96429.97
2022-10-18T06:49:45.092Z,96422.34
2022-10-18T06:52:11.682Z,96421.75
2022-10-18T06:54:38.232Z,96420.31
2022-10-18T06:57:04.873Z,96417.09
2022-10-18T06:59:31.643Z,96425.13
2022-10-18T07:01:58.347Z,96432.13
2022-10-18T07:04:27.749Z,96428.72
2022-10-18T07:06:54.593Z,96411.50
2022-10-18T07:09:21.205Z,96424.78
2022-10-18T07:11:47.805Z,96424.00
2022-10-18T07:14:16.424Z,96430.44
2022-10-18T07:16:43.200Z,96421.31
2022-10-18T07:19:09.803Z,96425.69
2022-10-18T07:21:36.650Z,96430.31
2022-10-18T07:24:03.257Z,96428.44
2022-10-18T07:26:31.716Z,96422.06
2022-10-18T07:29:00.505Z,96415.88
2022-10-18T07:31:27.537Z,96417.69
2022-10-18T07:33:54.245Z,96406.38
2022-10-18T07:36:24.701Z,96407.22
2022-10-18T07:38:52.179Z,96404.34
2022-10-18T07:41:19.103Z,96406.72
2022-10-18T07:43:46.858Z,96397.78
2022-10-18T07:46:14.174Z,96402.50
2022-10-18T07:48:40.901Z,96390.53
2022-10-18T07:51:07.555Z,96395.31
2022-10-18T07:53:34.767Z,96397.16
2022-10-18T07:56:04.706Z,96399.38
2022-10-18T07:58:34.411Z,96391.88
2022-10-18T08:01:05.173Z,96389.34
2022-10-18T08:03:31.965Z,96381.22
2022-10-18T08:05:58.549Z,96383.09
2022-10-18T08:08:25.738Z,96374.19
2022-10-18T08:10:52.626Z,96367.78
2022-10-18T08:13:19.325Z,96376.84
2022-10-18T08:15:46.115Z,96378.28
2022-10-18T08:18:12.864Z,96366.22
2022-10-18T08:20:43.354Z,96370.63
2022-10-18T08:23:10.242Z,96362.22
2022-10-18T08:25:37.052Z,96361.59
2022-10-18T08:28:03.733Z,96356.53
2022-10-18T08:30:30.507Z,96345.91
2022-10-18T08:32:57.120Z,96350.88
2022-10-18T08:35:23.745Z,96345.53
2022-10-18T08:37:50.395Z,96347.88
2022-10-18T08:40:17.172Z,96341.97
2022-10-18T08:42:49.792Z,96334.56
2022-10-18T11:17:08.086Z,96120.91
2022-10-18T11:19:53.556Z,96151.16
2022-10-18T11:22:22.158Z,96137.88
2022-10-18T11:24:48.747Z,96143.59
2022-10-18T11:27:27.418Z,96135.00
2022-10-18T11:30:03.020Z,96127.63
2022-10-18T11:32:45.783Z,96119.09
2022-10-18T11:35:23.735Z,96107.97
2022-10-18T11:38:01.802Z,96114.31
2022-10-18T11:40:34.645Z,96106.34
2022-10-18T11:43:16.552Z,96095.41
2022-10-18T11:46:04.312Z,96102.00
2022-10-18T11:48:48.599Z,96089.72
2022-10-18T11:51:15.141Z,96092.06
2022-10-18T11:53:49.563Z,96086.97
2022-10-18T11:56:21.344Z,96087.44
2022-10-18T11:58:53.723Z,96088.44
2022-10-18T12:01:28.911Z,96077.78
2022-10-18T12:04:12.010Z,96076.59
2022-10-18T12:06:47.072Z,96068.56
2022-10-18T12:09:25.779Z,96071.03
2022-10-18T12:11:57.090Z,96065.50
2022-10-18T12:14:30.243Z,96055.22
2022-10-18T12:17:28.011Z,96059.22
2022-10-18T12:19:47.795Z,96052.13
2022-10-18T12:23:11.695Z,96047.66
2022-10-18T12:25:40.395Z,96038.81
2022-10-18T12:28:06.993Z,96034.56
2022-10-18T12:30:48.132Z,96039.53
2022-10-18T12:33:33.202Z,96040.31
2022-10-18T12:36:03.456Z,96030.94
2022-10-18T12:38:35.797Z,96031.59
2022-10-18T12:41:02.950Z,96036.66
2022-10-18T12:43:34.203Z,96034.91
2022-10-18T12:46:13.814Z,96028.69
2022-10-18T12:48:45.833Z,96030.00
2022-10-18T12:51:15.374Z,96031.06
2022-10-18T12:53:44.953Z,96030.38
2022-10-18T12:56:29.779Z,96016.69
2022-10-18T12:59:17.518Z,96021.97
2022-10-18T13:01:53.121Z,96032.63
2022-10-18T13:04:29.040Z,96020.59
2022-10-18T13:06:58.737Z,96027.81
2022-10-18T13:09:26.669Z,96019.88
2022-10-18T13:12:13.175Z,96025.81
2022-10-18T13:14:48.237Z,96024.34
2022-10-18T13:17:37.463Z,96015.75
2022-10-18T13:20:27.404Z,96004.03
2022-10-18T13:23:00.223Z,96010.84
2022-10-18T13:25:46.339Z,96004.03
2022-10-18T13:28:12.876Z,96011.53
2022-10-18T13:30:51.206Z,96007.84
2022-10-18T13:33:25.954Z,96007.97
2022-10-18T13:35:56.047Z,95994.19
2022-10-18T13:38:37.853Z,95999.88
2022-10-18T13:41:06.825Z,95992.91
2022-10-18T13:43:52.636Z,95986.78
2022-10-18T13:46:20.087Z,95983.13
2022-10-18T13:48:54.046Z,95983.16
2022-10-18T13:51:20.679Z,95982.97
2022-10-18T13:53:54.896Z,95976.59
2022-10-18T13:56:34.864Z,95978.56
2022-10-18T13:59:21.769Z,95970.06
2022-10-18T14:02:00.569Z,95975.88
2022-10-18T14:04:45.888Z,95975.56
2022-10-18T14:07:12.633Z,95971.44
2022-10-18T14:09:49.958Z,95971.50
2022-10-18T14:12:34.479Z,95968.72
2022-10-18T14:15:15.845Z,95966.06
2022-10-18T14:17:51.573Z,95957.28
2022-10-18T14:20:29.441Z,95958.50
2022-10-18T14:23:05.291Z,95957.63
2022-10-18T14:25:33.868Z,95959.56
2022-10-18T14:28:13.198Z,95959.03
2022-10-18T14:31:12.331Z,95953.50
2022-10-18T14:33:38.923Z,95952.72
2022-10-18T14:36:14.615Z,95950.66
2022-10-18T14:39:11.742Z,95951.34
2022-10-18T14:41:47.604Z,95947.25
2022-10-18T14:44:14.215Z,95938.38
2022-10-18T14:46:46.724Z,95938.53
2022-10-18T14:49:14.439Z,95938.53
2022-10-18T14:51:42.617Z,95932.91
2022-10-18T14:54:20.262Z,95929.34
2022-10-18T14:56:47.905Z,95929.13
2022-10-18T14:59:20.787Z,95923.09
2022-10-18T15:02:14.030Z,95917.59
2022-10-18T15:04:43.734Z,95919.84
2022-10-18T15:07:15.543Z,95919.34
2022-10-18T15:09:42.749Z,95913.56
2022-10-18T15:12:12.407Z,95904.06
2022-10-18T15:14:40.255Z,95901.13
2022-10-18T15:17:24.407Z,95901.09
2022-10-18T15:20:05.972Z,95900.56
2022-10-18T15:22:33.813Z,95892.34
2022-10-18T15:25:18.200Z,95879.59
2022-10-18T15:27:46.774Z,95872.84
2022-10-18T15:30:28.244Z,95880.03
2022-10-18T15:32:56.519Z,95873.16
2022-10-18T15:35:33.513Z,95866.16
2022-10-18T15:38:04.282Z,95866.88
2022-10-18T15:40:32.839Z,95873.09
2022-10-18T15:43:01.424Z,95867.97
2022-10-18T15:45:32.839Z,95860.78
2022-10-18T15:48:16.667Z,95858.72
2022-10-18T15:50:47.783Z,95868.25
2022-10-18T15:53:20.803Z,95865.59
2022-10-18T15:55:55.720Z,95864.81
2022-10-18T15:58:22.389Z,95858.31
2022-10-18T16:00:49.656Z,95861.44
2022-10-18T16:03:17.037Z,95870.84
2022-10-18T16:05:43.906Z,95865.56
2022-10-18T16:08:18.541Z,95868.41
2022-10-18T16:10:45.143Z,95869.84
2022-10-18T16:13:11.768Z,95873.69
2022-10-18T16:15:38.470Z,95870.91
2022-10-18T16:18:05.037Z,95875.97
2022-10-18T16:20:31.654Z,95872.53
2022-10-18T16:22:58.321Z,95879.84
2022-10-18T16:25:25.023Z,95876.53
2022-10-18T16:27:51.614Z,95886.91
2022-10-18T16:30:20.136Z,95875.91
2022-10-18T16:32:48.868Z,95879.00
2022-10-18T16:35:15.601Z,95882.69
2022-10-18T16:37:43.320Z,95888.69
2022-10-18T16:40:20.212Z,95877.06
2022-10-18T16:42:46.892Z,95875.66
2022-10-18T16:45:13.489Z,95876.28
2022-10-18T16:47:40.219Z,95879.72
2022-10-18T16:50:08.759Z,95884.53
2022-10-18T16:52:35.872Z,95888.53
2022-10-18T16:55:02.534Z,95881.22
2022-10-18T16:57:30.867Z,95880.97
2022-10-18T16:59:57.674Z,95889.38
2022-10-18T17:02:24.373Z,95889.91
2022-10-18T17:04:52.002Z,95890.38
2022-10-18T17:07:23.377Z,95892.16
2022-10-18T17:09:49.978Z,95886.88
2022-10-18T17:12:16.639Z,95890.31
2022-10-18T17:14:43.296Z,95882.50
2022-10-18T17:17:13.162Z,95888.03
2022-10-18T17:19:39.848Z,95890.22
2022-10-18T17:22:06.584Z,95886.31
2022-10-18T17:24:33.306Z,95877.16
2022-10-18T17:27:00.496Z,95874.09
2022-10-18T17:29:27.438Z,95868.72
2022-10-18T17:31:54.286Z,95869.47
2022-10-18T17:34:21.593Z,95874.91
2022-10-18T17:36:48.344Z,95867.56
2022-10-18T17:39:15.105Z,95864.59
2022-10-18T17:41:41.742Z,95867.34
2022-10-18T17:44:08.466Z,95862.63
2022-10-18T17:46:35.128Z,95869.13
2022-10-18T17:49:02.158Z,95857.94
2022-10-18T17:51:28.955Z,95865.28
2022-10-18T17:53:55.624Z,95868.88
2022-10-18T17:56:22.275Z,95869.78
2022-10-18T17:58:52.009Z,95872.31
2022-10-18T18:01:20.121Z,95867.09
2022-10-18T18:03:49.793Z,95877.13
2022-10-18T18:06:18.340Z,95875.53
2022-10-18T18:08:45.388Z,95873.78
2022-10-18T18:11:12.039Z,95846.84
2022-10-18T18:13:38.870Z,95884.28
2022-10-18T18:16:22.369Z,95871.66
2022-10-18T18:18:50.285Z,95878.09
2022-10-18T18:21:17.587Z,95876.13
2022-10-18T18:23:44.356Z,95871.31
2022-10-18T18:26:13.921Z,95874.94
2022-10-18T18:28:40.771Z,95871.38
2022-10-18T18:31:08.631Z,95864.94
2022-10-18T18:33:35.871Z,95867.34
2022-10-18T18:36:04.899Z,95870.97
2022-10-18T18:38:31.771Z,95864.34
2022-10-18T18:41:08.832Z,95863.38
2022-10-18T18:43:36.243Z,95865.97
2022-10-18T18:46:02.858Z,95852.38
2022-10-18T18:48:31.215Z,95843.38
2022-10-18T18:50:57.919Z,95844.19
2022-10-18T18:53:28.577Z,95845.56
2022-10-18T18:56:04.403Z,95847.34
2022-10-18T18:58:31.784Z,95848.97
2022-10-18T19:00:58.444Z,95840.56
2022-10-18T19:03:25.207Z,95840.56
2022-10-18T19:05:51.880Z,95843.78
2022-10-18T19:08:18.617Z,95805.34
2022-10-18T19:10:49.026Z,95841.38
2022-10-18T19:13:15.775Z,95841.75
2022-10-18T19:15:42.421Z,95840.94
2022-10-18T19:18:09.035Z,95832.53
2022-10-18T19:20:35.675Z,95837.94
2022-10-18T19:23:02.245Z,95849.88
2022-10-18T19:25:29.105Z,95844.09
2022-10-18T19:27:55.752Z,95841.66
2022-10-18T19:30:22.508Z,95846.84
2022-10-18T19:32:52.699Z,95838.41
2022-10-18T19:35:19.317Z,95845.97
2022-10-18T19:37:45.989Z,95836.16
2022-10-18T19:40:12.604Z,95843.31
2022-10-18T19:42:39.942Z,95831.50
2022-10-18T19:45:07.941Z,95832.25
2022-10-18T19:47:34.669Z,95836.59
2022-10-18T19:50:01.339Z,95821.41
2022-10-18T19:52:28.728Z,95814.59
2022-10-18T19:54:55.815Z,95818.97
2022-10-18T19:57:22.560Z,95820.59
2022-10-18T19:59:50.528Z,95821.78
2022-10-18T20:02:17.233Z,95812.00
2022-10-18T20:04:43.914Z,95821.34
2022-10-18T20:07:10.442Z,95777.59
2022-10-18T20:09:36.978Z,95824.88
2022-10-18T20:12:03.661Z,95814.09
2022-10-18T20:14:30.280Z,95817.66
2022-10-18T20:16:57.041Z,95819.69
2022-10-18T20:19:23.706Z,95823.47
2022-10-18T20:21:50.378Z,95815.69
2022-10-18T20:24:17.012Z,95813.34
2022-10-18T20:26:43.778Z,95815.06
2022-10-18T20:29:10.745Z,95804.84
2022-10-18T20:31:39.161Z,95797.97
2022-10-18T20:34:07.802Z,95801.19
2022-10-18T20:36:34.826Z,95800.72
2022-10-18T20:39:02.071Z,95795.88
2022-10-18T20:41:29.916Z,95799.13
2022-10-18T20:44:00.272Z,95801.00
2022-10-18T20:46:29.345Z,95795.06
2022-10-18T20:48:56.080Z,95801.09
2022-10-18T20:51:23.178Z,95792.19
2022-10-18T20:53:50.189Z,95789.47
2022-10-18T20:56:20.279Z,95793.75
2022-10-18T20:58:47.856Z,95791.88
2022-10-18T21:01:21.404Z,95781.31
2022-10-18T21:03:49.079Z,95792.72
2022-10-18T21:06:22.918Z,95776.09
2022-10-18T21:08:53.415Z,95778.31
2022-10-18T21:11:20.069Z,95768.34
2022-10-18T21:13:50.035Z,95765.25
2022-10-18T21:16:16.716Z,95767.22
2022-10-18T21:18:43.257Z,95765.63
2022-10-18T21:21:14.298Z,95759.72
2022-10-18T21:23:41.669Z,95767.66
2022-10-18T21:26:09.037Z,95758.09
2022-10-18T21:28:35.793Z,95759.75
2022-10-18T21:31:13.204Z,95749.72
2022-10-18T21:33:40.183Z,95743.66
2022-10-18T21:36:06.970Z,95745.25
2022-10-18T21:38:33.694Z,95744.41
2022-10-18T21:41:00.714Z,95742.75
2022-10-18T21:43:27.628Z,95734.44
2022-10-18T21:45:59.054Z,95734.44
2022-10-18T21:48:26.338Z,95725.56
2022-10-18T21:50:53.153Z,95719.00
2022-10-18T21:53:20.905Z,95719.75
2022-10-18T21:55:48.298Z,95714.59
2022-10-18T21:58:14.875Z,95710.38
2022-10-18T22:00:41.645Z,95709.22
2022-10-18T22:03:09.077Z,95702.69
2022-10-18T22:05:35.822Z,95704.97
2022-10-18T22:08:02.605Z,95708.84
2022-10-18T22:10:29.193Z,95703.81
2022-10-18T22:12:55.798Z,95704.41
2022-10-18T22:15:22.362Z,95704.84
2022-10-18T22:17:48.933Z,95695.44
2022-10-18T22:20:15.507Z,95694.81
2022-10-18T22:22:42.118Z,95700.13
2022-10-18T22:25:08.916Z,95696.66
2022-10-18T22:27:35.949Z,95694.41
2022-10-18T22:30:03.036Z,95696.56
2022-10-18T22:32:29.596Z,95691.13
2022-10-18T22:34:56.173Z,95690.13
2022-10-18T22:37:22.775Z,95691.16
2022-10-18T22:39:49.302Z,95686.13
2022-10-18T22:42:15.879Z,95690.72
2022-10-18T22:44:42.415Z,95679.47
2022-10-18T22:47:09.008Z,95680.09
2022-10-18T22:49:36.542Z,95675.47
2022-10-18T22:52:05.269Z,95672.25
2022-10-18T22:54:31.876Z,95655.94
2022-10-18T22:56:58.450Z,95666.28
2022-10-18T22:59:25.115Z,95670.53
2022-10-18T23:01:51.761Z,95668.06
2022-10-18T23:04:18.396Z,95664.47
2022-10-18T23:06:45.096Z,95677.66
2022-10-18T23:09:12.155Z,95667.16
2022-10-18T23:11:38.761Z,95661.72
2022-10-18T23:14:06.487Z,95661.69
2022-10-18T23:16:33.455Z,95657.03
2022-10-18T23:19:00.286Z,95661.09
2022-10-18T23:21:28.764Z,95651.00
2022-10-18T23:23:56.508Z,95651.47
2022-10-18T23:26:24.401Z,95645.31
2022-10-18T23:28:51.693Z,95653.88
2022-10-18T23:31:18.874Z,95654.72
2022-10-18T23:33:46.226Z,95646.72
2022-10-18T23:36:12.908Z,95648.09
2022-10-18T23:38:39.579Z,95642.00
2022-10-18T23:41:06.928Z,95635.88
2022-10-18T23:43:33.894Z,95632.22
2022-10-18T23:46:00.994Z,95636.44
2022-10-18T23:48:27.733Z,95626.94
2022-10-18T23:50:54.331Z,95622.94
2022-10-18T23:53:21.271Z,95620.53
2022-10-18T23:55:55.204Z,95624.41
2022-10-18T23:58:22.003Z,95623.28
